createdAt,value
2019-03-05T10:34:50.696Z,23.546753
2019-03-05T10:34:59.692Z,23.536682
2019-03-05T10:35:07.905Z,23.556824
2019-03-05T10:35:16.084Z,23.556824
2019-03-05T10:35:24.324Z,23.587036
2019-03-05T10:35:32.770Z,23.587036
2019-03-05T10:35:49.756Z,23.556824
2019-03-05T10:35:57.744Z,23.597107
2019-03-05T10:36:22.184Z,23.516541
2019-03-05T10:36:30.357Z,23.738098
2019-03-05T10:36:38.682Z,23.838806
2019-03-05T10:36:44.798Z,23.808594
2019-03-05T10:36:50.916Z,23.808594
2019-03-05T10:36:59.721Z,23.778381
2019-03-05T10:37:12.529Z,23.818665
2019-03-05T10:37:18.828Z,23.778381
2019-03-05T10:37:21.320Z,23.75824
2019-03-05T10:37:27.373Z,23.738098
2019-03-05T10:37:33.250Z,23.75824
2019-03-05T10:37:39.160Z,23.728027
2019-03-05T10:37:45.031Z,23.707886
2019-03-05T10:37:53.220Z,23.728027
2019-03-05T10:38:00.320Z,23.707886
2019-03-05T10:38:12.095Z,23.667603
2019-03-05T10:38:26.838Z,23.63739
2019-03-05T10:38:36.460Z,23.607178
2019-03-05T10:38:42.278Z,23.587036
2019-03-05T10:38:57.065Z,23.546753
2019-03-05T10:38:57.695Z,23.556824
2019-03-05T10:39:04.856Z,23.536682
2019-03-05T10:39:10.986Z,23.516541
2019-03-05T10:39:29.837Z,23.546753
2019-03-05T10:39:30.730Z,23.607178
2019-03-05T10:39:34.988Z,23.597107
2019-03-05T10:39:43.094Z,23.587036
2019-03-05T10:39:51.371Z,23.536682
2019-03-05T10:39:57.391Z,23.516541
2019-03-05T10:40:06.078Z,23.486328
2019-03-05T10:40:12.238Z,23.707886
2019-03-05T10:40:22.937Z,24.040222
2019-03-05T10:40:32.728Z,24.26178
2019-03-05T10:40:41.682Z,24.402771
2019-03-05T10:40:50.341Z,24.483337
2019-03-05T10:40:58.971Z,24.51355
2019-03-05T10:41:09.509Z,24.473267
2019-03-05T10:41:15.496Z,24.432983
2019-03-05T10:41:21.265Z,24.402771
2019-03-05T10:41:29.363Z,24.312134
2019-03-05T10:41:35.182Z,24.26178
2019-03-05T10:41:42.890Z,24.221497
2019-03-05T10:41:46.753Z,24.161072
2019-03-05T10:41:52.536Z,24.110718
2019-03-05T10:42:03.782Z,24.080505
2019-03-05T10:42:09.044Z,24.030151
2019-03-05T10:42:14.864Z,24.01001
2019-03-05T10:42:20.644Z,23.979797
2019-03-05T10:42:26.594Z,23.959656
2019-03-05T10:42:33.414Z,23.919373
2019-03-05T10:42:41.151Z,23.909302
2019-03-05T10:42:45.043Z,23.848877
2019-03-05T10:42:50.833Z,23.818665
2019-03-05T10:43:07.669Z,23.778381
2019-03-05T10:43:08.269Z,23.75824
2019-03-05T10:43:10.484Z,23.707886
2019-03-05T10:43:20.320Z,23.667603
2019-03-05T10:43:28.488Z,23.627319
2019-03-05T10:43:38.978Z,23.556824
2019-03-05T10:43:48.898Z,23.486328
2019-03-05T10:43:59.170Z,23.446045
2019-03-05T10:44:08.757Z,23.405762
2019-03-05T10:44:20.253Z,23.335266
2019-03-05T10:44:28.254Z,23.294983
2019-03-05T10:44:37.436Z,23.284912
2019-03-05T10:44:47.878Z,23.284912
2019-03-05T10:44:58.629Z,23.294983
2019-03-05T10:45:04.457Z,23.284912
2019-03-05T10:45:12.481Z,23.294983
2019-03-05T10:45:20.586Z,23.294983
2019-03-05T10:45:31.754Z,23.294983
2019-03-05T10:45:40.336Z,23.294983
2019-03-05T10:45:50.600Z,23.284912
2019-03-05T10:46:00.825Z,23.264771
2019-03-05T10:46:09.109Z,23.264771
2019-03-05T10:46:17.062Z,23.214417
2019-03-05T10:46:25.252Z,23.184204
2019-03-05T10:46:33.370Z,23.184204
2019-03-05T10:46:41.737Z,23.184204
2019-03-05T10:46:49.777Z,23.214417
2019-03-05T10:46:57.768Z,23.234558
2019-03-05T10:47:08.255Z,23.2547
2019-03-05T10:47:14.476Z,23.264771
2019-03-05T10:47:24.510Z,23.294983
2019-03-05T10:47:32.751Z,23.325195
2019-03-05T10:47:40.854Z,23.335266
2019-03-05T10:47:49.328Z,23.365479
2019-03-05T10:47:57.715Z,23.405762
2019-03-05T10:48:05.976Z,23.415833
2019-03-05T10:48:14.343Z,23.38562
2019-03-05T10:48:22.858Z,23.405762
2019-03-05T10:48:31.172Z,23.435974
2019-03-05T10:48:39.288Z,23.446045
2019-03-05T10:48:47.661Z,23.415833
2019-03-05T10:48:55.814Z,23.405762
2019-03-05T10:49:01.987Z,23.38562
2019-03-05T10:49:12.321Z,23.335266
2019-03-05T10:49:20.094Z,23.325195
2019-03-05T10:49:25.922Z,23.335266
2019-03-05T10:49:31.720Z,23.325195
2019-03-05T10:49:37.473Z,23.325195
2019-03-05T10:49:43.292Z,23.305054
2019-03-05T10:49:49.153Z,23.305054
2019-03-05T10:49:54.975Z,23.284912
2019-03-05T10:50:00.901Z,23.264771
2019-03-05T10:50:15.168Z,23.234558
2019-03-05T10:50:15.408Z,23.224487
2019-03-05T10:50:20.533Z,23.174133
2019-03-05T10:50:26.305Z,23.174133
2019-03-05T10:50:32.104Z,23.143921
2019-03-05T10:50:41.932Z,23.13385
